Time;durP1;ratioP1;P1;durP2;ratioP2;P2;SDS_P1;SDS_P2;PMS_P1;PMS_P2;Temp;Humidity;BMP_temperature;BMP_pressure;BME280_temperature;BME280_humidity;BME280_pressure;Samples;Min_cycle;Max_cycle;Signal;HPM_P1;HPM_P2
2022/10/12 00:01:21;;;;;;;10.85;7.28;;;;;;;10.50;60.30;99973.77;1768902;81;21111;-42
2022/10/12 00:03:48;;;;;;;17.02;7.00;;;;;;;10.51;60.34;99971.27;1768678;81;21014;-42
2022/10/12 00:06:21;;;;;;;12.53;7.50;;;;;;;10.50;60.47;99971.06;1768739;81;21022;-43
2022/10/12 00:08:51;;;;;;;11.80;7.83;;;;;;;10.48;60.61;99974.11;1768743;80;21002;-44
2022/10/12 00:11:21;;;;;;;17.17;8.28;;;;;;;10.44;60.79;99970.52;1768777;81;20980;-44
2022/10/12 00:13:49;;;;;;;12.07;7.42;;;;;;;10.40;61.02;99973.13;1768727;81;21716;-44
2022/10/12 00:16:19;;;;;;;13.35;8.10;;;;;;;10.34;61.35;99973.13;1768637;80;21524;-44
2022/10/12 00:18:52;;;;;;;12.70;8.00;;;;;;;10.28;61.77;99977.77;1768788;81;21025;-44
2022/10/12 00:21:19;;;;;;;14.18;7.95;;;;;;;10.20;62.05;99974.06;1768012;81;20947;-44
2022/10/12 00:23:46;;;;;;;14.18;7.33;;;;;;;10.20;62.19;99974.63;1768736;81;21568;-44
2022/10/12 00:26:22;;;;;;;11.57;7.30;;;;;;;10.26;62.20;99977.34;1768683;81;21314;-44
2022/10/12 00:28:50;;;;;;;14.00;7.72;;;;;;;10.28;62.13;99965.58;1768746;81;21039;-44
2022/10/12 00:31:19;;;;;;;9.88;5.97;;;;;;;10.37;62.05;99979.78;1745303;81;21000;-44
2022/10/12 00:33:46;;;;;;;15.38;7.95;;;;;;;10.39;62.03;99982.95;1768703;81;20996;-43
2022/10/12 00:36:25;;;;;;;17.80;8.15;;;;;;;10.41;61.99;99983.38;1768816;81;21087;-44
2022/10/12 00:38:53;;;;;;;11.30;7.95;;;;;;;10.42;61.94;99979.54;1768355;81;21223;-44
2022/10/12 00:41:23;;;;;;;15.72;8.03;;;;;;;10.42;61.95;99980.89;1768801;81;20975;-44
2022/10/12 00:43:52;;;;;;;13.83;8.40;;;;;;;10.40;61.92;99970.41;1768868;81;21611;-44
2022/10/12 00:46:42;;;;;;;12.47;8.08;;;;;;;10.38;61.95;99981.36;1768728;81;20956;-44
2022/10/12 00:49:20;;;;;;;15.32;7.85;;;;;;;10.35;62.00;99975.28;1768962;81;21517;-44
2022/10/12 00:51:51;;;;;;;13.60;7.92;;;;;;;10.28;62.16;99973.70;1768009;81;22117;-44
2022/10/12 00:54:21;;;;;;;12.43;8.10;;;;;;;10.24;62.28;99983.66;1768750;81;20931;-44
2022/10/12 00:56:48;;;;;;;11.48;8.20;;;;;;;10.24;62.37;99987.16;1768839;81;20984;-44
2022/10/12 00:59:23;;;;;;;14.15;7.97;;;;;;;10.25;62.47;99982.53;1745253;81;20975;-44
2022/10/12 01:01:49;;;;;;;14.80;8.23;;;;;;;10.29;62.62;99986.13;1768741;81;21545;-44
2022/10/12 01:04:16;;;;;;;13.65;7.62;;;;;;;10.26;62.87;99989.53;1769063;81;21943;-44
2022/10/12 01:06:43;;;;;;;13.68;8.55;;;;;;;10.25;63.08;99989.30;1768784;81;21020;-44
2022/10/12 01:09:10;;;;;;;14.13;8.63;;;;;;;10.15;63.34;99988.38;1768887;81;21611;-44
2022/10/12 01:11:38;;;;;;;13.48;8.85;;;;;;;10.09;63.68;99990.53;1768680;81;20943;-44
2022/10/12 01:14:04;;;;;;;12.18;8.45;;;;;;;10.06;63.92;99996.64;1762298;80;21008;-44
2022/10/12 01:16:43;;;;;;;12.98;8.43;;;;;;;10.02;64.18;99995.16;1740249;82;23174;-44
2022/10/12 01:19:29;;;;;;;13.53;8.33;;;;;;;10.03;64.34;99994.59;1740058;82;28837;-44
2022/10/12 01:22:06;;;;;;;12.28;8.25;;;;;;;10.09;64.50;100001.92;1740301;82;21525;-43
2022/10/12 01:25:06;;;;;;;15.53;8.73;;;;;;;10.11;64.71;99996.97;1740250;82;21025;-44
2022/10/12 01:27:47;;;;;;;12.53;9.03;;;;;;;10.10;64.99;100002.95;1740515;82;21510;-44
2022/10/12 01:30:24;;;;;;;14.58;9.43;;;;;;;10.08;65.06;100005.77;1740102;82;21255;-44
2022/10/12 01:33:26;;;;;;;14.07;8.93;;;;;;;9.99;65.24;100011.30;1740325;82;20957;-44
2022/10/12 01:36:04;;;;;;;14.55;8.65;;;;;;;9.87;65.60;100002.63;1740484;82;21087;-43
2022/10/12 01:38:54;;;;;;;15.32;8.88;;;;;;;9.76;66.16;100008.27;1740232;82;21076;-44
2022/10/12 01:41:29;;;;;;;18.07;9.50;;;;;;;9.65;66.53;99999.00;1740405;82;21048;-43
2022/10/12 01:43:57;;;;;;;16.12;8.90;;;;;;;9.62;67.02;100002.95;1740298;82;20961;-43
2022/10/12 01:46:29;;;;;;;15.15;9.28;;;;;;;9.64;67.15;100006.89;1740325;82;20941;-44
2022/10/12 01:49:00;;;;;;;13.45;9.70;;;;;;;9.67;67.18;100006.79;1740390;82;20897;-44
2022/10/12 01:52:01;;;;;;;13.43;8.53;;;;;;;9.69;67.25;100004.52;1740723;82;21593;-44
2022/10/12 01:54:57;;;;;;;13.43;9.25;;;;;;;9.68;67.28;100003.75;1740335;82;21447;-44
2022/10/12 01:57:47;;;;;;;15.20;9.33;;;;;;;9.67;67.35;100006.23;1740505;82;21213;-44
2022/10/12 02:00:15;;;;;;;;;;;;;;;9.57;67.69;100002.05;1743075;81;21044;-43
2022/10/12 02:03:03;;;;;;;13.80;8.35;;;;;;;9.47;68.03;100013.87;1740449;82;20130;-43
2022/10/12 02:05:50;;;;;;;13.38;8.60;;;;;;;9.40;68.40;100013.05;1740299;82;20985;-44
2022/10/12 02:08:28;;;;;;;13.40;9.05;;;;;;;9.39;68.60;100014.77;1740282;82;21111;-45
2022/10/12 02:11:17;;;;;;;13.32;9.28;;;;;;;9.30;68.86;100020.80;1740263;82;21306;-45
2022/10/12 02:13:51;;;;;;;12.50;9.18;;;;;;;9.22;69.11;100023.05;1740124;82;21558;-45
2022/10/12 02:16:24;;;;;;;16.23;9.73;;;;;;;9.11;69.50;100024.81;1740283;80;21031;-44
2022/10/12 02:18:53;;;;;;;16.52;10.25;;;;;;;9.05;69.74;100031.55;1740211;82;20893;-45
2022/10/12 02:21:25;;;;;;;16.17;9.55;;;;;;;9.05;69.82;100024.78;1740463;82;20985;-45
2022/10/12 02:23:52;;;;;;;12.33;9.00;;;;;;;9.06;70.07;100029.08;1740165;82;21527;-45
2022/10/12 02:26:19;;;;;;;12.65;8.50;;;;;;;9.12;70.17;100031.02;1740248;82;21352;-44
2022/10/12 02:28:46;;;;;;;12.98;9.15;;;;;;;9.18;70.21;100032.95;1740336;82;21003;-45
2022/10/12 02:31:39;;;;;;;12.13;9.05;;;;;;;9.23;70.12;100034.10;1740234;82;21000;-45
2022/10/12 02:34:39;;;;;;;11.68;9.13;;;;;;;9.24;69.94;100030.28;1737678;82;20959;-44
2022/10/12 02:37:29;;;;;;;15.70;8.75;;;;;;;9.14;70.16;100040.40;1739835;82;21226;-44
2022/10/12 02:40:07;;;;;;;12.37;8.45;;;;;;;9.12;70.22;100033.16;1706663;82;21012;-45
2022/10/12 02:42:37;;;;;;;15.70;9.08;;;;;;;9.16;70.20;100035.43;1737223;82;22094;-45
2022/10/12 02:45:06;;;;;;;15.75;9.33;;;;;;;9.18;70.45;100047.84;1712504;83;21028;-45
2022/10/12 02:47:34;;;;;;;15.63;9.78;;;;;;;9.18;70.53;100046.48;1730389;82;21013;-45
2022/10/12 02:50:01;;;;;;;17.77;9.83;;;;;;;9.19;70.35;100051.57;1712463;83;21226;-45
2022/10/12 02:52:29;;;;;;;14.98;9.78;;;;;;;9.19;70.22;100049.42;1712387;83;21053;-45
2022/10/12 02:54:56;;;;;;;18.05;9.35;;;;;;;9.18;70.14;100055.39;1712317;83;21061;-45
2022/10/12 02:57:22;;;;;;;14.98;8.65;;;;;;;9.18;70.01;100056.75;1712253;83;21100;-45
2022/10/12 02:59:50;;;;;;;11.80;8.85;;;;;;;9.18;69.83;100062.72;1712331;83;21017;-45
2022/10/12 03:02:16;;;;;;;14.93;9.00;;;;;;;9.09;70.12;100069.00;1712253;83;21235;-45
2022/10/12 03:04:43;;;;;;;14.58;9.38;;;;;;;9.01;70.55;100067.70;1712302;83;21530;-44
2022/10/12 03:07:11;;;;;;;13.38;9.68;;;;;;;8.96;70.88;100066.00;1712197;83;21032;-45
2022/10/12 03:09:37;;;;;;;12.50;9.50;;;;;;;8.93;71.09;100074.78;1712215;83;21581;-45
2022/10/12 03:12:05;;;;;;;13.43;9.78;;;;;;;8.94;71.14;100067.47;1712546;83;21353;-44
2022/10/12 03:14:33;;;;;;;15.40;9.00;;;;;;;8.94;70.88;100066.91;1717411;81;21131;-45
2022/10/12 03:17:03;;;;;;;13.30;9.10;;;;;;;8.90;70.84;100067.34;1756045;80;20945;-45
2022/10/12 03:19:30;;;;;;;18.10;10.40;;;;;;;8.90;70.91;100063.28;1756077;81;21037;-45
2022/10/12 03:21:58;;;;;;;15.08;10.20;;;;;;;8.85;71.04;100063.48;1755936;81;21010;-45
2022/10/12 03:24:24;;;;;;;12.90;9.43;;;;;;;8.83;71.15;100061.66;1756107;81;20997;-45
2022/10/12 03:26:51;;;;;;;16.97;9.48;;;;;;;8.79;71.21;100071.55;1755904;80;21133;-45
2022/10/12 03:29:18;;;;;;;16.32;9.38;;;;;;;8.74;71.32;100074.45;1755950;80;20978;-45
2022/10/12 03:31:45;;;;;;;13.25;9.30;;;;;;;8.67;71.58;100074.17;1755888;80;21040;-44
2022/10/12 03:34:12;;;;;;;12.73;9.05;;;;;;;8.68;71.76;100078.47;1756063;81;20931;-44
2022/10/12 03:36:39;;;;;;;11.95;9.20;;;;;;;8.70;71.93;100082.44;1756270;81;21016;-44
2022/10/12 03:39:05;;;;;;;13.88;9.98;;;;;;;8.64;72.19;100076.98;1756229;80;21295;-45
2022/10/12 03:41:32;;;;;;;14.23;9.55;;;;;;;8.59;72.47;100073.69;1756045;80;20945;-45
2022/10/12 03:43:59;;;;;;;16.35;10.45;;;;;;;8.56;72.59;100079.20;1756094;80;21088;-44
2022/10/12 03:46:27;;;;;;;15.23;9.68;;;;;;;8.58;72.60;100073.45;1756072;81;21025;-45
2022/10/12 03:48:54;;;;;;;15.00;10.23;;;;;;;8.66;72.55;100080.72;1756161;81;20996;-45
2022/10/12 03:51:21;;;;;;;16.65;10.28;;;;;;;8.75;72.45;100081.45;1756167;80;21235;-44
2022/10/12 03:53:48;;;;;;;13.70;10.45;;;;;;;8.78;72.45;100084.84;1752200;81;21092;-44
2022/10/12 03:56:15;;;;;;;18.85;10.95;;;;;;;8.79;72.49;100079.67;1756002;80;21079;-45
2022/10/12 03:58:42;;;;;;;15.98;10.00;;;;;;;8.82;72.50;100085.75;1755924;81;21057;-45
2022/10/12 04:01:08;;;;;;;15.03;9.83;;;;;;;8.82;72.36;100083.05;1756157;80;21013;-45
2022/10/12 04:03:36;;;;;;;13.98;9.83;;;;;;;8.83;72.43;100085.99;1755843;81;23210;-45
2022/10/12 04:06:04;;;;;;;16.20;10.72;;;;;;;8.91;72.44;100087.03;1755668;80;21029;-45
2022/10/12 04:08:31;;;;;;;15.53;10.10;;;;;;;8.97;72.41;100084.37;1756001;80;20969;-44
2022/10/12 04:10:58;;;;;;;19.52;10.32;;;;;;;9.01;72.20;100076.61;1755778;81;20977;-45
2022/10/12 04:13:24;;;;;;;16.50;11.35;;;;;;;9.06;71.98;100086.44;1756068;80;21531;-45
2022/10/12 04:15:51;;;;;;;19.85;10.82;;;;;;;9.07;71.77;100093.44;1754329;81;21137;-44
2022/10/12 04:18:18;;;;;;;18.00;10.15;;;;;;;9.11;71.54;100093.79;1753126;81;20987;-45
2022/10/12 04:20:48;;;;;;;16.52;10.43;;;;;;;9.16;71.24;100094.94;1753249;81;21058;-44
2022/10/12 04:23:15;;;;;;;12.93;10.53;;;;;;;9.18;71.26;100094.63;1753325;81;21086;-45
2022/10/12 04:25:41;;;;;;;15.83;11.12;;;;;;;9.19;71.23;100098.12;1753247;81;21039;-45
2022/10/12 04:28:09;;;;;;;15.23;10.90;;;;;;;9.12;71.23;100099.44;1753231;81;20979;-45
2022/10/12 04:30:36;;;;;;;15.68;11.28;;;;;;;9.01;71.42;100102.30;1753080;81;21572;-45
2022/10/12 04:33:04;;;;;;;16.97;10.20;;;;;;;8.94;71.67;100106.67;1753186;81;21010;-45
2022/10/12 04:35:32;;;;;;;12.37;10.00;;;;;;;8.90;71.75;100103.84;1753439;81;21040;-45
2022/10/12 04:37:59;;;;;;;14.43;10.32;;;;;;;8.86;71.83;100106.95;1753403;81;20944;-45
2022/10/12 04:40:26;;;;;;;16.25;10.82;;;;;;;8.85;72.07;100113.50;1753635;81;21099;-45
2022/10/12 04:42:54;;;;;;;15.60;11.05;;;;;;;8.80;72.38;100116.41;1753555;81;20916;-45
2022/10/12 04:45:22;;;;;;;17.57;11.88;;;;;;;8.70;72.82;100120.28;1753773;81;20972;-45
2022/10/12 04:47:49;;;;;;;17.07;10.45;;;;;;;8.60;73.17;100121.22;1753536;81;21008;-45
2022/10/12 04:50:16;;;;;;;14.73;11.25;;;;;;;8.58;73.55;100124.80;1753588;81;21031;-44
2022/10/12 04:52:43;;;;;;;14.98;10.18;;;;;;;8.57;73.67;100136.16;1753442;81;21589;-44
2022/10/12 04:55:11;;;;;;;17.80;10.78;;;;;;;8.63;73.89;100130.02;1753313;81;20936;-44
2022/10/12 04:57:39;;;;;;;18.07;12.07;;;;;;;8.65;73.93;100137.25;1753416;81;21285;-45
2022/10/12 05:00:07;;;;;;;13.65;11.22;;;;;;;8.64;74.08;100138.36;1753331;81;21498;-44
2022/10/12 05:02:36;;;;;;;17.77;11.35;;;;;;;8.64;74.16;100135.10;1753641;81;21008;-44
2022/10/12 05:05:03;;;;;;;16.05;10.85;;;;;;;8.68;74.17;100144.69;1753150;81;23101;-44
2022/10/12 05:07:30;;;;;;;13.43;11.18;;;;;;;8.78;74.00;100146.22;1753427;81;20995;-44
2022/10/12 05:09:57;;;;;;;13.93;10.95;;;;;;;8.88;73.94;100147.98;1753352;81;20956;-44
2022/10/12 05:12:24;;;;;;;14.58;11.45;;;;;;;8.91;73.93;100148.67;1753508;81;21480;-44
2022/10/12 05:14:51;;;;;;;19.20;12.05;;;;;;;8.91;73.97;100148.67;1753329;81;21525;-44
2022/10/12 05:17:18;;;;;;;17.60;11.80;;;;;;;8.92;74.02;100151.61;1750624;82;21232;-44
2022/10/12 05:19:46;;;;;;;21.48;11.20;;;;;;;8.91;73.96;100155.43;1750541;82;20995;-45
2022/10/12 05:22:13;;;;;;;15.70;10.75;;;;;;;8.95;74.03;100156.94;1750422;82;20992;-45
2022/10/12 05:24:40;;;;;;;20.68;11.20;;;;;;;8.98;74.13;100161.68;1750424;82;21043;-44
2022/10/12 05:27:07;;;;;;;15.78;11.85;;;;;;;8.97;74.33;100158.73;1750527;82;21091;-44
2022/10/12 05:29:36;;;;;;;18.60;13.20;;;;;;;8.94;74.68;100165.61;1750393;82;20984;-44
2022/10/12 05:32:02;;;;;;;18.95;12.15;;;;;;;8.90;74.83;100164.69;1750395;82;20920;-44
2022/10/12 05:34:31;;;;;;;18.45;11.40;;;;;;;8.92;74.94;100169.19;1750415;82;20964;-45
2022/10/12 05:36:57;;;;;;;16.67;11.68;;;;;;;9.01;75.03;100168.56;1750505;82;21019;-44
2022/10/12 05:39:24;;;;;;;14.68;11.30;;;;;;;9.07;74.92;100165.91;1750683;82;21000;-44
2022/10/12 05:41:53;;;;;;;15.58;11.85;;;;;;;9.09;75.03;100169.64;1750499;82;23146;-45
2022/10/12 05:44:19;;;;;;;16.45;12.03;;;;;;;9.09;75.23;100170.44;1750538;82;20921;-44
2022/10/12 05:46:46;;;;;;;15.60;11.40;;;;;;;9.11;75.27;100168.18;1750441;82;21490;-44
2022/10/12 05:49:13;;;;;;;17.10;11.30;;;;;;;9.14;75.30;100176.21;1750426;82;20999;-45
2022/10/12 05:51:40;;;;;;;15.35;11.20;;;;;;;9.24;75.24;100175.02;1750575;82;21020;-44
2022/10/12 05:54:09;;;;;;;16.35;11.80;;;;;;;9.36;75.09;100177.78;1750212;82;22157;-44
2022/10/12 05:56:35;;;;;;;18.05;12.63;;;;;;;9.42;75.09;100188.64;1750621;82;20952;-45
2022/10/12 05:59:02;;;;;;;18.70;12.93;;;;;;;9.47;75.16;100193.30;1750322;82;21474;-44
2022/10/12 06:01:29;;;;;;;16.85;12.05;;;;;;;9.54;75.10;100192.73;1750484;82;20940;-44
2022/10/12 06:03:56;;;;;;;16.75;11.83;;;;;;;9.62;74.97;100192.45;1750316;82;21541;-44
2022/10/12 06:06:24;;;;;;;14.83;10.95;;;;;;;9.76;74.87;100193.75;1750563;82;21720;-45
2022/10/12 06:08:51;;;;;;;19.52;12.45;;;;;;;9.90;74.79;100196.95;1750392;82;20963;-44
2022/10/12 06:11:18;;;;;;;16.85;12.58;;;;;;;9.97;74.64;100201.24;1750324;82;20994;-45
2022/10/12 06:13:46;;;;;;;16.50;12.53;;;;;;;10.03;74.31;100205.33;1750314;81;20956;-44
2022/10/12 06:16:14;;;;;;;15.20;11.15;;;;;;;10.07;74.08;100211.45;1747016;81;21037;-44
2022/10/12 06:18:40;;;;;;;18.35;12.20;;;;;;;10.09;73.94;100211.89;1742690;82;21239;-44
2022/10/12 06:21:07;;;;;;;18.20;11.78;;;;;;;10.18;74.03;100209.34;1742504;82;20973;-44
2022/10/12 06:23:34;;;;;;;18.60;12.03;;;;;;;10.29;73.78;100219.20;1742584;82;20933;-45
2022/10/12 06:26:01;;;;;;;17.85;12.37;;;;;;;10.35;73.69;100217.30;1742642;82;21072;-44
2022/10/12 06:28:28;;;;;;;18.77;13.05;;;;;;;10.40;73.54;100217.64;1742532;82;21053;-44
2022/10/12 06:30:58;;;;;;;17.87;11.60;;;;;;;10.39;73.41;100215.48;1742446;82;21102;-44
2022/10/12 06:33:27;;;;;;;14.95;11.33;;;;;;;10.41;73.47;100221.34;1742209;82;20922;-44
2022/10/12 06:35:54;;;;;;;18.12;12.95;;;;;;;10.51;73.49;100224.18;1742364;82;21499;-45
2022/10/12 06:38:22;;;;;;;18.62;12.23;;;;;;;10.60;73.53;100224.86;1742266;82;21076;-45
2022/10/12 06:40:52;;;;;;;18.12;13.53;;;;;;;10.70;73.51;100227.69;1742438;82;20966;-44
2022/10/12 06:43:21;;;;;;;18.55;12.78;;;;;;;10.77;72.99;100230.08;1742611;82;23230;-45
2022/10/12 06:45:48;;;;;;;16.55;12.75;;;;;;;10.87;72.96;100230.98;1742359;82;21001;-44
2022/10/12 06:48:15;;;;;;;18.48;12.10;;;;;;;11.00;72.77;100234.47;1742368;82;21016;-44
2022/10/12 06:50:42;;;;;;;19.35;13.18;;;;;;;11.17;72.27;100234.24;1742397;82;20898;-45
2022/10/12 06:53:09;;;;;;;18.00;13.10;;;;;;;11.31;71.66;100236.59;1742381;82;20961;-45
2022/10/12 06:55:39;;;;;;;21.30;13.70;;;;;;;11.38;71.13;100237.34;1742318;82;23188;-45
2022/10/12 06:58:06;;;;;;;19.50;13.98;;;;;;;11.38;70.98;100237.34;1742602;82;27641;-45
2022/10/12 07:00:33;;;;;;;21.37;14.13;;;;;;;11.42;70.76;100240.42;1742673;82;20891;-45
2022/10/12 07:03:00;;;;;;;17.23;12.73;;;;;;;11.47;70.94;100241.54;1742445;82;20978;-45
2022/10/12 07:05:27;;;;;;;19.17;12.88;;;;;;;11.52;70.08;100237.20;1742667;82;21081;-45
2022/10/12 07:07:54;;;;;;;17.60;12.55;;;;;;;11.54;69.95;100247.16;1742461;82;21853;-45
2022/10/12 07:10:20;;;;;;;18.87;13.22;;;;;;;11.55;69.93;100248.75;1742361;82;21826;-45
2022/10/12 07:12:47;;;;;;;20.00;13.08;;;;;;;11.56;69.82;100246.26;1742415;81;20914;-45
2022/10/12 07:15:14;;;;;;;19.52;14.10;;;;;;;11.63;70.09;100249.16;1742395;82;21021;-44
2022/10/12 07:17:43;;;;;;;21.17;13.10;;;;;;;11.67;69.63;100248.69;1742285;82;20969;-45
2022/10/12 07:20:10;;;;;;;19.48;13.22;;;;;;;11.67;69.55;100251.41;1742454;82;21046;-45
2022/10/12 07:22:38;;;;;;;21.17;12.13;;;;;;;11.67;69.44;100247.90;1742140;82;21549;-44
2022/10/12 07:25:06;;;;;;;16.10;12.03;;;;;;;11.73;69.38;100247.91;1742236;82;21613;-45
2022/10/12 07:27:33;;;;;;;17.70;12.80;;;;;;;11.82;69.29;100252.63;1742382;82;21033;-45
2022/10/12 07:30:01;;;;;;;18.55;10.93;;;;;;;11.88;69.35;100250.47;1742553;82;20961;-45
2022/10/12 07:32:28;;;;;;;17.55;10.82;;;;;;;11.96;69.23;100250.87;1742200;82;21126;-43
2022/10/12 07:34:56;;;;;;;18.57;11.12;;;;;;;12.04;68.99;100254.81;1742234;82;20962;-44
2022/10/12 07:37:23;;;;;;;15.88;10.68;;;;;;;12.10;68.71;100247.97;1742432;82;21017;-43
2022/10/12 07:39:49;;;;;;;14.25;10.05;;;;;;;12.16;68.50;100243.08;1742842;81;21033;-44
2022/10/12 07:42:16;;;;;;;14.18;8.83;;;;;;;12.27;68.31;100244.72;1742490;82;21635;-43
2022/10/12 07:44:43;;;;;;;13.43;8.75;;;;;;;12.41;68.04;100241.00;1742448;81;21122;-43
2022/10/12 07:47:09;;;;;;;13.68;9.38;;;;;;;12.52;67.62;100242.87;1729891;82;20957;-43
2022/10/12 07:49:36;;;;;;;16.37;9.60;;;;;;;12.63;67.24;100241.18;1742478;82;20929;-43
2022/10/12 07:52:04;;;;;;;12.95;9.08;;;;;;;12.74;66.95;100237.93;1742457;81;21089;-43
2022/10/12 07:54:32;;;;;;;13.83;8.95;;;;;;;12.84;66.90;100242.84;1742362;82;21485;-43
2022/10/12 07:56:59;;;;;;;19.48;9.05;;;;;;;12.95;66.72;100245.25;1742435;82;21263;-43
2022/10/12 07:59:26;;;;;;;12.30;7.90;;;;;;;13.02;66.14;100247.55;1742371;81;21057;-43
2022/10/12 08:01:53;;;;;;;14.75;7.62;;;;;;;13.11;65.97;100246.05;1742228;81;21037;-43
2022/10/12 08:04:20;;;;;;;15.10;7.65;;;;;;;13.26;65.71;100243.08;1742418;82;21001;-44
2022/10/12 08:06:48;;;;;;;12.63;7.35;;;;;;;13.40;65.61;100246.11;1742311;81;20973;-45
2022/10/12 08:09:15;;;;;;;15.00;7.87;;;;;;;13.52;64.78;100245.17;1742312;82;21081;-45
2022/10/12 08:11:42;;;;;;;14.18;6.83;;;;;;;13.62;64.42;100245.97;1742256;82;20998;-45
2022/10/12 08:14:13;;;;;;;11.05;6.62;;;;;;;13.70;63.83;100249.08;1742391;81;20930;-45
2022/10/12 08:16:43;;;;;;;;;;;;;;;13.75;62.87;100250.91;1745029;81;21558;-45
2022/10/12 08:19:10;;;;;;;14.83;7.92;;;;;;;13.78;62.23;100248.06;1742492;82;20125;-45
2022/10/12 08:21:37;;;;;;;12.60;7.03;;;;;;;13.71;62.50;100243.82;1742486;82;21126;-45
2022/10/12 08:24:06;;;;;;;13.95;7.67;;;;;;;13.78;62.80;100244.77;1742313;82;20930;-45
2022/10/12 08:26:32;;;;;;;9.88;5.78;;;;;;;13.85;62.90;100246.83;1742568;82;21092;-45
2022/10/12 08:32:00;;;;;;;12.75;6.12;;;;;;;14.12;61.16;100246.38;1830558;78;22818;-43
2022/10/12 08:34:29;;;;;;;11.60;5.87;;;;;;;14.19;61.32;100250.02;1803228;79;20919;-44
2022/10/12 08:36:58;;;;;;;13.95;5.92;;;;;;;14.30;59.14;100252.38;1803346;79;21126;-44
2022/10/12 08:39:25;;;;;;;15.78;6.97;;;;;;;14.37;58.66;100249.02;1803280;79;21023;-44
2022/10/12 08:42:14;;;;;;;13.98;5.33;;;;;;;14.45;58.73;100243.11;1803489;79;21512;-44
2022/10/12 08:45:12;;;;;;;11.57;4.70;;;;;;;14.52;58.52;100244.03;1801595;79;21484;-44
2022/10/12 08:47:51;;;;;;;11.22;5.08;;;;;;;14.58;55.74;100250.73;1802401;79;21536;-44
2022/10/12 08:50:30;;;;;;;16.73;5.50;;;;;;;14.62;55.46;100250.22;1803904;79;21252;-44
2022/10/12 08:53:08;;;;;;;10.93;5.25;;;;;;;14.67;55.53;100249.12;1803502;79;21013;-44
2022/10/12 08:55:45;;;;;;;7.93;4.50;;;;;;;14.70;55.43;100248.41;1803346;79;20930;-44
2022/10/12 08:58:16;;;;;;;10.15;4.17;;;;;;;14.74;55.30;100247.89;1803381;79;21538;-44
2022/10/12 09:00:46;;;;;;;9.63;4.15;;;;;;;14.84;54.97;100248.64;1803406;79;21018;-44
2022/10/12 09:03:33;;;;;;;12.53;4.65;;;;;;;14.93;54.03;100246.44;1803332;79;23145;-44
2022/10/12 09:06:15;;;;;;;14.33;4.53;;;;;;;15.00;53.52;100243.83;1803140;79;21515;-44
2022/10/12 09:09:00;;;;;;;13.55;4.40;;;;;;;15.08;53.51;100241.40;1803350;79;20910;-44
2022/10/12 09:12:02;;;;;;;9.90;4.00;;;;;;;15.12;52.93;100247.70;1803261;79;21033;-44
2022/10/12 09:14:36;;;;;;;12.47;3.95;;;;;;;15.19;51.86;100246.45;1803247;79;21021;-44
2022/10/12 09:17:16;;;;;;;7.45;3.42;;;;;;;15.22;50.67;100247.06;1803244;79;20926;-44
2022/10/12 09:19:43;;;;;;;10.18;3.62;;;;;;;15.25;50.21;100248.86;1793943;79;20950;-44
2022/10/12 09:22:15;;;;;;;11.33;4.00;;;;;;;15.24;49.01;100250.80;1803404;79;21017;-44
2022/10/12 09:24:42;;;;;;;7.85;3.30;;;;;;;15.26;49.22;100249.84;1803560;79;20981;-44
2022/10/12 09:27:17;;;;;;;11.30;3.37;;;;;;;15.29;48.51;100249.12;1803309;79;21530;-44
2022/10/12 09:29:50;;;;;;;9.43;3.08;;;;;;;15.36;48.38;100249.78;1803361;79;21078;-44
2022/10/12 09:32:53;;;;;;;6.12;3.00;;;;;;;15.43;47.93;100247.16;1802424;79;21528;-44
2022/10/12 09:35:20;;;;;;;9.40;3.08;;;;;;;15.48;47.47;100249.56;1803139;79;21492;-44
2022/10/12 09:37:51;;;;;;;8.90;3.65;;;;;;;15.52;46.41;100244.96;1803204;79;21507;-44
2022/10/12 09:40:29;;;;;;;8.53;3.75;;;;;;;15.56;47.08;100253.41;1803493;79;21629;-44
2022/10/12 09:42:57;;;;;;;9.03;3.25;;;;;;;15.65;47.92;100247.66;1802588;79;21171;-44
2022/10/12 09:45:23;;;;;;;12.45;4.28;;;;;;;15.76;45.93;100245.85;1745780;79;21001;-44
2022/10/12 09:48:14;;;;;;;9.18;3.27;;;;;;;15.86;46.45;100245.20;1802555;79;20898;-44
2022/10/12 09:50:45;;;;;;;8.60;3.17;;;;;;;16.00;45.69;100247.30;1802646;79;21013;-44
2022/10/12 09:53:34;;;;;;;8.75;3.02;;;;;;;16.12;45.56;100244.28;1801959;79;21506;-44
2022/10/12 09:56:07;;;;;;;13.50;3.30;;;;;;;16.29;44.78;100247.02;1802833;79;21798;-44
2022/10/12 09:58:55;;;;;;;9.18;3.10;;;;;;;16.44;44.13;100243.25;1802514;79;21522;-44
2022/10/12 10:01:31;;;;;;;11.20;4.17;;;;;;;16.59;43.82;100232.67;1802610;79;21479;-44
2022/10/12 10:04:12;;;;;;;8.18;3.00;;;;;;;16.75;43.74;100236.52;1802619;79;20965;-44
2022/10/12 10:06:44;;;;;;;7.70;2.70;;;;;;;16.84;42.72;100226.81;1802848;79;20914;-44
2022/10/12 10:09:33;;;;;;;8.35;3.40;;;;;;;16.91;42.11;100231.53;1802760;79;20969;-44
2022/10/12 10:12:21;;;;;;;10.18;3.17;;;;;;;17.01;42.72;100230.03;1802592;79;20957;-44
2022/10/12 10:14:50;;;;;;;13.98;3.75;;;;;;;17.14;42.00;100225.23;1802894;79;20934;-44
2022/10/12 10:17:28;;;;;;;10.38;3.17;;;;;;;17.22;42.73;100221.96;1802725;79;21554;-44
2022/10/12 10:19:56;;;;;;;8.90;3.20;;;;;;;17.29;41.98;100226.88;1802720;79;20949;-44
2022/10/12 10:22:24;;;;;;;8.63;2.53;;;;;;;17.36;42.05;100219.30;1802980;79;20958;-44
2022/10/12 10:24:58;;;;;;;6.95;2.90;;;;;;;17.44;41.20;100227.74;1802719;79;20980;-44
2022/10/12 10:27:37;;;;;;;8.28;3.00;;;;;;;17.48;41.71;100225.80;1802850;79;21632;-44
2022/10/12 10:30:20;;;;;;;8.63;2.70;;;;;;;17.48;40.32;100230.50;1802561;79;20969;-44
2022/10/12 10:32:47;;;;;;;5.30;2.60;;;;;;;17.46;40.48;100222.67;1802594;79;21530;-44
2022/10/12 10:35:21;;;;;;;5.42;2.77;;;;;;;17.53;39.40;100230.13;1802693;79;21300;-44
2022/10/12 10:37:56;;;;;;;7.45;3.15;;;;;;;17.56;40.37;100219.20;1802485;79;20973;-45
2022/10/12 10:40:26;;;;;;;7.35;2.72;;;;;;;17.55;40.13;100224.48;1802721;79;20926;-45
2022/10/12 10:42:56;;;;;;;8.73;3.25;;;;;;;17.40;40.15;100228.31;1802523;79;20965;-45
2022/10/12 10:45:29;;;;;;;10.00;3.20;;;;;;;17.27;40.62;100224.34;1784877;79;21066;-45
2022/10/12 10:48:00;;;;;;;7.75;3.20;;;;;;;17.18;40.88;100228.80;1783976;80;21066;-45
2022/10/12 10:50:38;;;;;;;9.80;3.50;;;;;;;17.01;41.41;100225.92;1784094;80;20958;-45
2022/10/12 10:53:21;;;;;;;6.33;3.10;;;;;;;16.90;41.85;100225.84;1783932;80;27024;-45
2022/10/12 10:56:13;;;;;;;11.97;3.47;;;;;;;16.87;42.26;100221.94;1783991;79;21517;-45
2022/10/12 10:58:52;;;;;;;8.30;3.95;;;;;;;16.88;42.41;100221.35;1783930;80;20932;-45
2022/10/12 11:01:24;;;;;;;8.65;3.45;;;;;;;16.75;42.05;100224.95;1784044;79;21225;-45
2022/10/12 11:04:14;;;;;;;9.83;3.92;;;;;;;16.49;41.97;100222.38;1780104;80;21588;-44
2022/10/12 11:06:48;;;;;;;7.92;3.15;;;;;;;16.29;42.41;100222.38;1769398;81;20966;-45
2022/10/12 11:09:19;;;;;;;6.75;2.67;;;;;;;16.11;40.83;100228.27;1769244;81;20967;-45
2022/10/12 11:12:02;;;;;;;8.60;3.02;;;;;;;15.99;41.54;100221.89;1769129;80;20963;-45
2022/10/12 11:14:45;;;;;;;5.72;2.67;;;;;;;15.87;41.88;100226.27;1769313;81;21181;-44
2022/10/12 11:17:23;;;;;;;8.58;2.77;;;;;;;15.70;42.26;100232.88;1769352;81;20932;-44
2022/10/12 11:20:15;;;;;;;9.00;2.72;;;;;;;15.53;42.80;100231.52;1769371;81;21000;-45
2022/10/12 11:22:50;;;;;;;8.40;2.87;;;;;;;15.42;43.75;100231.34;1769282;81;21031;-45
2022/10/12 11:25:42;;;;;;;7.87;2.95;;;;;;;15.32;43.79;100229.82;1770642;80;21089;-44
2022/10/12 11:28:10;;;;;;;11.15;3.17;;;;;;;15.24;44.01;100230.31;1783452;80;21128;-45
2022/10/12 11:30:48;;;;;;;8.68;2.98;;;;;;;15.32;43.39;100231.19;1784187;80;21002;-45
2022/10/12 11:33:24;;;;;;;9.33;3.52;;;;;;;15.58;43.18;100224.36;1784082;79;21011;-44
2022/10/12 11:35:50;;;;;;;9.43;3.30;;;;;;;16.00;43.03;100215.27;1783934;80;20911;-45
2022/10/12 11:38:35;;;;;;;10.50;3.00;;;;;;;16.46;43.03;100209.43;1783948;79;21003;-45
2022/10/12 11:41:18;;;;;;;9.03;2.92;;;;;;;16.80;41.10;100215.02;1783996;79;21603;-45
2022/10/12 11:43:52;;;;;;;10.58;3.33;;;;;;;16.83;41.17;100217.59;1783944;79;21061;-45